ETHF/FRZ METAR and TAF weather

Enter ICAO airport designator
Station Type Date Time Source
ETHF METAR 2019/10/18 06:20 UTC NOAA

ETHF 180620Z 18009KT 9999 FEW002 SCT036 BKN190 13/11 Q1010 BLU BLU+ TEMPO BLU


Station Type Date Time Source
ETHF Decoded METAR 2019/10/18 06:20 UTC NOAA

Fritzlar, Germany (ETHF) 51-07N 009-17E 181M
Oct 18, 2019 - 02:20 AM EDT / 2019.10.18 0620 UTC
Wind: from the S (180 degrees) at 10 MPH (9 KT):0
Visibility: greater than 7 mile(s):0
Sky conditions: mostly cloudy
Temperature: 55 F (13 C)
Dew Point: 51 F (11 C)
Relative Humidity: 87%
Pressure (altimeter): 29.83 in. Hg (1010 hPa)
ob: ETHF 180620Z 18009KT 9999 FEW002 SCT036 BKN190 13/11 Q1010 BLU BLU+ TEMPO BLU
cycle: 6

Station Type Date Time Source
ETHF TAF 2018/05/18 05:37 UTC NOAA

TAF ETHF 180407Z 1805/1818 35006KT 9999 NSW BKN020
TEMPO 1805/1808 33005KT 9999 NSW BKN012
BECMG 1809/1811 36008KT 9999 NSW SCT030 BKN180

Example: see airport list